Time,TemperatureF,DewpointF,PressureIn,WindDirection,WindDirectionDegrees,WindSpeedMPH,WindSpeedGustMPH,Humidity,HourlyPrecipIn,Conditions,Clouds,dailyrainin,SoftwareType,DateUTC
2013-03-12 00:00:00,51.4,46.7,29.65,SSW,205,6.0,8.0,84,0.00,,,0.00,Wunderground v.1.15,2013-03-12 04:00:00,
2013-03-12 00:05:00,51.3,46.9,29.65,SW,217,7.0,12.0,85,0.00,,,0.00,Wunderground v.1.15,2013-03-12 04:05:00,
2013-03-12 00:10:00,51.1,46.7,29.65,SSW,196,6.0,8.0,85,0.00,,,0.01,Wunderground v.1.15,2013-03-12 04:10:00,
2013-03-12 00:15:00,51.1,47.1,29.65,SSW,196,7.0,8.0,86,0.00,,,0.01,Wunderground v.1.15,2013-03-12 04:15:00,
2013-03-12 00:20:00,51.2,47.2,29.66,SW,234,8.0,8.0,86,0.00,,,0.01,Wunderground v.1.15,2013-03-12 04:20:00,
2013-03-12 00:25:00,51.1,47.4,29.66,SSW,211,7.0,8.0,87,0.00,,,0.01,Wunderground v.1.15,2013-03-12 04:25:00,
2013-03-12 00:30:00,50.9,47.2,29.66,SW,221,5.0,5.0,87,0.00,,,0.02,Wunderground v.1.15,2013-03-12 04:30:00,
2013-03-12 00:40:00,50.5,47.4,29.67,WSW,246,4.0,4.0,89,0.05,,,0.03,Wunderground v.1.15,2013-03-12 04:40:00,
2013-03-12 00:45:00,50.2,47.4,29.68,West,271,3.0,8.0,90,0.18,,,0.04,Wunderground v.1.15,2013-03-12 04:45:00,
2013-03-12 00:50:00,49.4,46.9,29.69,WSW,257,4.0,10.0,91,0.34,,,0.07,Wunderground v.1.15,2013-03-12 04:50:00,
2013-03-12 00:55:00,47.8,45.0,29.68,WSW,254,9.0,10.0,90,0.54,,,0.12,Wunderground v.1.15,2013-03-12 04:55:00,
2013-03-12 01:00:00,47.2,44.4,29.69,SSW,207,9.0,9.0,90,0.19,,,0.13,Wunderground v.1.15,2013-03-12 05:00:00,
2013-03-12 01:05:00,46.9,44.1,29.69,SW,232,8.0,9.0,90,0.16,,,0.14,Wunderground v.1.15,2013-03-12 05:05:00,
2013-03-12 01:15:00,46.6,43.8,29.69,SSW,209,6.0,8.0,90,0.04,,,0.14,Wunderground v.1.15,2013-03-12 05:15:00,
2013-03-12 01:20:00,46.5,43.7,29.69,SSW,205,6.0,6.0,90,0.00,,,0.15,Wunderground v.1.15,2013-03-12 05:20:00,
2013-03-12 01:25:00,46.4,43.6,29.69,SW,225,6.0,10.0,90,0.10,,,0.15,Wunderground v.1.15,2013-03-12 05:25:00,
2013-03-12 01:30:00,46.4,43.3,29.69,SW,229,7.0,7.0,89,0.10,,,0.16,Wunderground v.1.15,2013-03-12 05:30:00,
2013-03-12 01:35:00,46.5,43.4,29.69,WSW,241,7.0,8.0,89,0.06,,,0.00,Wunderground v.1.15,2013-03-12 05:35:00,
2013-03-12 01:40:00,46.5,43.4,29.68,SW,234,7.0,8.0,89,0.04,,,0.00,Wunderground v.1.15,2013-03-12 05:40:00,
2013-03-12 01:45:00,46.5,43.4,29.68,SW,229,7.0,8.0,89,0.00,,,0.01,Wunderground v.1.15,2013-03-12 05:45:00,
2013-03-12 01:55:00,46.3,43.5,29.68,WSW,248,6.0,8.0,90,0.00,,,0.01,Wunderground v.1.15,2013-03-12 05:55:00,
2013-03-12 02:00:00,46.2,43.4,29.68,WSW,238,5.0,8.0,90,0.00,,,0.01,Wunderground v.1.15,2013-03-12 06:00:00,
2013-03-12 02:05:00,46.1,43.3,29.68,SW,219,4.0,8.0,90,0.00,,,0.01,Wunderground v.1.15,2013-03-12 06:05:00,
2013-03-12 02:10:00,46.1,43.3,29.69,WSW,241,5.0,8.0,90,0.00,,,0.01,Wunderground v.1.15,2013-03-12 06:10:00,
2013-03-12 02:15:00,46.0,43.5,29.70,WSW,248,5.0,8.0,91,0.00,,,0.01,Wunderground v.1.15,2013-03-12 06:15:00,
2013-03-12 02:20:00,46.0,43.5,29.70,West,266,5.0,5.0,91,0.00,,,0.02,Wunderground v.1.15,2013-03-12 06:20:00,
2013-03-12 02:30:00,45.6,43.4,29.69,WSW,258,3.0,10.0,92,0.16,,,0.04,Wunderground v.1.15,2013-03-12 06:30:00,
2013-03-12 02:35:00,45.6,43.4,29.69,West,267,5.0,10.0,92,0.07,,,0.04,Wunderground v.1.15,2013-03-12 06:35:00,
2013-03-12 02:40:00,45.5,43.3,29.70,West,275,5.0,8.0,92,0.04,,,0.04,Wunderground v.1.15,2013-03-12 06:40:00,
2013-03-12 02:45:00,45.4,43.2,29.70,West,265,4.0,8.0,92,0.00,,,0.05,Wunderground v.1.15,2013-03-12 06:45:00,
2013-03-12 02:50:00,45.1,43.2,29.70,West,273,5.0,10.0,93,0.00,,,0.05,Wunderground v.1.15,2013-03-12 06:50:00,
2013-03-12 02:55:00,44.4,41.9,29.70,WSW,245,8.0,15.0,91,0.00,,,0.05,Wunderground v.1.15,2013-03-12 06:55:00,
2013-03-12 03:00:00,43.9,41.4,29.71,West,271,10.0,10.0,91,0.00,,,0.05,Wunderground v.1.15,2013-03-12 07:00:00,
2013-03-12 03:10:00,43.1,40.4,29.70,West,268,7.0,8.0,90,0.00,,,0.06,Wunderground v.1.15,2013-03-12 07:10:00,
2013-03-12 03:15:00,42.7,40.0,29.70,WSW,246,6.0,8.0,90,0.00,,,0.06,Wunderground v.1.15,2013-03-12 07:15:00,
2013-03-12 03:20:00,42.3,39.6,29.71,West,270,5.0,9.0,90,0.00,,,0.06,Wunderground v.1.15,2013-03-12 07:20:00,
2013-03-12 03:25:00,42.1,39.4,29.71,WNW,298,6.0,9.0,90,0.00,,,0.06,Wunderground v.1.15,2013-03-12 07:25:00,
2013-03-12 03:30:00,41.9,39.2,29.71,WSW,247,6.0,8.0,90,0.00,,,0.06,Wunderground v.1.15,2013-03-12 07:30:00,
2013-03-12 03:35:00,41.7,39.0,29.71,WSW,240,5.0,8.0,90,0.00,,,0.06,Wunderground v.1.15,2013-03-12 07:35:00,
2013-03-12 03:40:00,41.5,38.8,29.72,WSW,245,4.0,8.0,90,0.00,,,0.06,Wunderground v.1.15,2013-03-12 07:40:00,
2013-03-12 03:50:00,41.3,38.3,29.73,WSW,237,5.0,8.0,89,0.00,,,0.06,Wunderground v.1.15,2013-03-12 07:50:00,
2013-03-12 03:55:00,41.2,38.5,29.73,WSW,237,6.0,8.0,90,0.00,,,0.06,Wunderground v.1.15,2013-03-12 07:55:00,
2013-03-12 04:00:00,41.0,38.3,29.73,SW,236,7.0,8.0,90,0.00,,,0.06,Wunderground v.1.15,2013-03-12 08:00:00,
2013-03-12 04:05:00,40.8,38.4,29.74,SW,225,6.0,8.0,91,0.00,,,0.06,Wunderground v.1.15,2013-03-12 08:05:00,
2013-03-12 04:10:00,40.7,38.3,29.73,SW,233,6.0,6.0,91,0.00,,,0.07,Wunderground v.1.15,2013-03-12 08:10:00,
2013-03-12 04:15:00,40.6,38.2,29.72,West,263,5.0,8.0,91,0.00,,,0.07,Wunderground v.1.15,2013-03-12 08:15:00,
2013-03-12 04:25:00,40.2,37.8,29.71,WNW,294,4.0,8.0,91,0.00,,,0.07,Wunderground v.1.15,2013-03-12 08:25:00,
2013-03-12 04:35:00,39.7,37.0,29.72,West,267,7.0,8.0,90,0.00,,,0.07,Wunderground v.1.15,2013-03-12 08:35:00,
2013-03-12 04:40:00,39.4,37.0,29.72,West,259,8.0,8.0,91,0.00,,,0.07,Wunderground v.1.15,2013-03-12 08:40:00,
2013-03-12 04:45:00,39.1,36.4,29.73,West,261,7.0,8.0,90,0.00,,,0.07,Wunderground v.1.15,2013-03-12 08:45:00,
2013-03-12 04:50:00,38.7,36.0,29.74,WSW,243,9.0,9.0,90,0.00,,,0.07,Wunderground v.1.15,2013-03-12 08:50:00,
2013-03-12 04:55:00,38.4,35.7,29.75,WSW,252,8.0,9.0,90,0.00,,,0.07,Wunderground v.1.15,2013-03-12 08:55:00,
2013-03-12 05:00:00,38.1,35.4,29.75,WSW,248,7.0,7.0,90,0.00,,,0.07,Wunderground v.1.15,2013-03-12 09:00:00,
2013-03-12 05:10:00,37.6,35.2,29.75,West,267,7.0,7.0,91,0.12,,,0.09,Wunderground v.1.15,2013-03-12 09:10:00,
2013-03-12 05:15:00,37.4,35.0,29.75,West,262,7.0,8.0,91,0.18,,,0.10,Wunderground v.1.15,2013-03-12 09:15:00,
2013-03-12 05:20:00,37.3,35.2,29.75,West,266,6.0,13.0,92,0.07,,,0.10,Wunderground v.1.15,2013-03-12 09:20:00,
2013-03-12 05:25:00,37.3,34.9,29.74,WNW,287,7.0,13.0,91,0.05,,,0.10,Wunderground v.1.15,2013-03-12 09:25:00,
2013-03-12 05:30:00,37.2,34.8,29.74,WSW,253,7.0,7.0,91,0.00,,,0.10,Wunderground v.1.15,2013-03-12 09:30:00,
2013-03-12 05:35:00,37.1,34.4,29.74,West,268,6.0,8.0,90,0.00,,,0.10,Wunderground v.1.15,2013-03-12 09:35:00,
2013-03-12 05:45:00,37.0,34.3,29.75,WSW,246,6.0,11.0,90,0.00,,,0.10,Wunderground v.1.15,2013-03-12 09:45:00,
2013-03-12 05:50:00,36.9,34.2,29.75,West,273,6.0,6.0,90,0.00,,,0.10,Wunderground v.1.15,2013-03-12 09:50:00,
2013-03-12 05:55:00,36.9,34.2,29.75,SW,223,6.0,8.0,90,0.00,,,0.10,Wunderground v.1.15,2013-03-12 09:55:00,
2013-03-12 06:00:00,36.8,33.9,29.76,WSW,237,5.0,8.0,89,0.00,,,0.10,Wunderground v.1.15,2013-03-12 10:00:00,
2013-03-12 06:05:00,36.8,33.9,29.77,South,186,5.0,8.0,89,0.00,,,0.10,Wunderground v.1.15,2013-03-12 10:05:00,
2013-03-12 06:10:00,36.8,33.9,29.78,WSW,252,6.0,6.0,89,0.00,,,0.10,Wunderground v.1.15,2013-03-12 10:10:00,
2013-03-12 06:15:00,36.7,33.8,29.78,WSW,237,6.0,8.0,89,0.00,,,0.10,Wunderground v.1.15,2013-03-12 10:15:00,
2013-03-12 06:25:00,36.5,33.6,29.77,West,274,6.0,8.0,89,0.00,,,0.10,Wunderground v.1.15,2013-03-12 10:25:00,
2013-03-12 06:30:00,36.4,33.5,29.77,WSW,250,6.0,6.0,89,0.00,,,0.10,Wunderground v.1.15,2013-03-12 10:30:00,
2013-03-12 06:35:00,36.2,33.3,29.77,West,270,5.0,8.0,89,0.00,,,0.10,Wunderground v.1.15,2013-03-12 10:35:00,
2013-03-12 06:40:00,36.1,32.9,29.77,West,278,6.0,6.0,88,0.00,,,0.10,Wunderground v.1.15,2013-03-12 10:40:00,
2013-03-12 06:45:00,36.1,32.9,29.78,WSW,242,6.0,8.0,88,0.00,,,0.10,Wunderground v.1.15,2013-03-12 10:45:00,
2013-03-12 06:50:00,36.1,32.9,29.78,West,263,7.0,7.0,88,0.00,,,0.11,Wunderground v.1.15,2013-03-12 10:50:00,
2013-03-12 07:00:00,36.0,32.8,29.78,West,261,6.0,6.0,88,0.00,,,0.11,Wunderground v.1.15,2013-03-12 11:00:00,
2013-03-12 07:05:00,35.9,32.7,29.77,WSW,252,5.0,8.0,88,0.00,,,0.11,Wunderground v.1.15,2013-03-12 11:05:00,
2013-03-12 07:10:00,35.8,32.3,29.78,SW,219,4.0,8.0,87,0.00,,,0.11,Wunderground v.1.15,2013-03-12 11:10:00,
2013-03-12 07:15:00,35.8,32.3,29.78,West,263,4.0,8.0,87,0.00,,,0.11,Wunderground v.1.15,2013-03-12 11:15:00,
2013-03-12 07:20:00,35.7,32.2,29.78,SW,227,5.0,8.0,87,0.00,,,0.11,Wunderground v.1.15,2013-03-12 11:20:00,
2013-03-12 07:25:00,35.8,32.3,29.78,WSW,242,5.0,8.0,87,0.00,,,0.11,Wunderground v.1.15,2013-03-12 11:25:00,
2013-03-12 07:30:00,35.6,32.1,29.77,WNW,284,3.0,8.0,87,0.00,,,0.11,Wunderground v.1.15,2013-03-12 11:30:00,
2013-03-12 07:40:00,35.7,32.2,29.78,West,267,3.0,8.0,87,0.00,,,0.11,Wunderground v.1.15,2013-03-12 11:40:00,
2013-03-12 07:45:00,35.7,32.2,29.78,SSW,202,2.0,8.0,87,0.00,,,0.11,Wunderground v.1.15,2013-03-12 11:45:00,
2013-03-12 07:50:00,35.7,32.2,29.78,WSW,248,4.0,4.0,87,0.00,,,0.11,Wunderground v.1.15,2013-03-12 11:50:00,
2013-03-12 07:55:00,35.8,32.0,29.79,SW,221,4.0,8.0,86,0.00,,,0.11,Wunderground v.1.15,2013-03-12 11:55:00,
2013-03-12 08:00:00,35.9,32.4,29.79,SW,232,4.0,8.0,87,0.00,,,0.11,Wunderground v.1.15,2013-03-12 12:00:00,
2013-03-12 08:05:00,35.9,32.1,29.79,SW,236,3.0,8.0,86,0.00,,,0.11,Wunderground v.1.15,2013-03-12 12:05:00,
2013-03-12 08:15:00,36.0,32.2,29.78,SW,216,4.0,8.0,86,0.00,,,0.11,Wunderground v.1.15,2013-03-12 12:15:00,
2013-03-12 08:20:00,36.1,32.3,29.80,WNW,284,5.0,8.0,86,0.00,,,0.11,Wunderground v.1.15,2013-03-12 12:20:00,
2013-03-12 08:25:00,36.2,32.4,29.79,WSW,242,5.0,8.0,86,0.00,,,0.11,Wunderground v.1.15,2013-03-12 12:25:00,
2013-03-12 08:30:00,36.2,32.1,29.79,West,260,5.0,5.0,85,0.00,,,0.11,Wunderground v.1.15,2013-03-12 12:30:00,
2013-03-12 08:35:00,36.2,32.1,29.80,WSW,239,5.0,9.0,85,0.00,,,0.11,Wunderground v.1.15,2013-03-12 12:35:00,
2013-03-12 08:40:00,36.2,32.4,29.80,West,265,5.0,5.0,86,0.00,,,0.11,Wunderground v.1.15,2013-03-12 12:40:00,
2013-03-12 08:45:00,36.3,32.5,29.80,West,259,4.0,8.0,86,0.00,,,0.11,Wunderground v.1.15,2013-03-12 12:45:00,
2013-03-12 08:55:00,36.2,32.4,29.80,West,259,6.0,8.0,86,0.00,,,0.11,Wunderground v.1.15,2013-03-12 12:55:00,
2013-03-12 09:00:00,36.2,32.4,29.80,West,269,6.0,6.0,86,0.00,,,0.11,Wunderground v.1.15,2013-03-12 13:00:00,
2013-03-12 09:05:00,36.2,32.1,29.80,WSW,257,6.0,12.0,85,0.00,,,0.11,Wunderground v.1.15,2013-03-12 13:05:00,
2013-03-12 09:10:00,36.2,32.1,29.79,West,270,7.0,7.0,85,0.00,,,0.11,Wunderground v.1.15,2013-03-12 13:10:00,
2013-03-12 09:15:00,36.3,32.5,29.80,WSW,252,7.0,8.0,86,0.00,,,0.11,Wunderground v.1.15,2013-03-12 13:15:00,
2013-03-12 09:20:00,36.3,32.2,29.80,SW,223,6.0,13.0,85,0.00,,,0.11,Wunderground v.1.15,2013-03-12 13:20:00,
2013-03-12 09:30:00,36.4,32.3,29.79,West,267,7.0,7.0,85,0.00,,,0.11,Wunderground v.1.15,2013-03-12 13:30:00,
2013-03-12 09:35:00,36.4,32.3,29.79,WSW,253,6.0,8.0,85,0.00,,,0.11,Wunderground v.1.15,2013-03-12 13:35:00,
2013-03-12 09:40:00,36.3,31.9,29.80,WSW,247,6.0,6.0,84,0.00,,,0.11,Wunderground v.1.15,2013-03-12 13:40:00,
2013-03-12 09:45:00,36.4,32.3,29.80,West,279,5.0,8.0,85,0.00,,,0.11,Wunderground v.1.15,2013-03-12 13:45:00,
2013-03-12 09:50:00,36.4,32.3,29.80,West,266,4.0,4.0,85,0.00,,,0.11,Wunderground v.1.15,2013-03-12 13:50:00,
2013-03-12 09:55:00,36.5,32.4,29.80,West,270,3.0,8.0,85,0.00,,,0.11,Wunderground v.1.15,2013-03-12 13:55:00,
2013-03-12 10:05:00,36.7,32.3,29.81,SW,219,5.0,8.0,84,0.00,,,0.11,Wunderground v.1.15,2013-03-12 14:05:00,
2013-03-12 10:10:00,36.8,32.7,29.81,WSW,238,5.0,9.0,85,0.00,,,0.11,Wunderground v.1.15,2013-03-12 14:10:00,
2013-03-12 10:15:00,36.9,32.5,29.81,WSW,238,5.0,9.0,84,0.00,,,0.11,Wunderground v.1.15,2013-03-12 14:15:00,
2013-03-12 10:20:00,37.0,32.3,29.81,SW,234,6.0,8.0,83,0.00,,,0.11,Wunderground v.1.15,2013-03-12 14:20:00,
2013-03-12 10:25:00,37.2,32.5,29.81,SW,225,6.0,8.0,83,0.00,,,0.11,Wunderground v.1.15,2013-03-12 14:25:00,
2013-03-12 10:30:00,37.4,32.7,29.81,SW,225,6.0,6.0,83,0.00,,,0.11,Wunderground v.1.15,2013-03-12 14:30:00,
2013-03-12 10:35:00,37.5,32.8,29.81,SSW,197,6.0,8.0,83,0.00,,,0.11,Wunderground v.1.15,2013-03-12 14:35:00,
2013-03-12 10:45:00,37.8,32.8,29.81,WSW,254,5.0,9.0,82,0.00,,,0.11,Wunderground v.1.15,2013-03-12 14:45:00,
2013-03-12 10:50:00,37.9,32.6,29.81,WSW,256,6.0,6.0,81,0.00,,,0.11,Wunderground v.1.15,2013-03-12 14:50:00,
2013-03-12 10:55:00,38.2,33.2,29.81,SW,225,6.0,8.0,82,0.00,,,0.11,Wunderground v.1.15,2013-03-12 14:55:00,
2013-03-12 11:00:00,38.2,32.6,29.81,SW,230,6.0,6.0,80,0.00,,,0.11,Wunderground v.1.15,2013-03-12 15:00:00,
2013-03-12 11:05:00,38.1,32.5,29.81,West,265,7.0,7.0,80,0.00,,,0.11,Wunderground v.1.15,2013-03-12 15:05:00,
2013-03-12 11:10:00,38.1,32.2,29.81,West,274,8.0,8.0,79,0.00,,,0.11,Wunderground v.1.15,2013-03-12 15:10:00,
2013-03-12 11:15:00,38.2,32.6,29.81,West,278,7.0,8.0,80,0.00,,,0.11,Wunderground v.1.15,2013-03-12 15:15:00,
2013-03-12 11:25:00,38.0,32.4,29.82,West,262,7.0,8.0,80,0.00,,,0.11,Wunderground v.1.15,2013-03-12 15:25:00,
2013-03-12 11:30:00,38.3,32.7,29.81,WNW,286,6.0,8.0,80,0.00,,,0.11,Wunderground v.1.15,2013-03-12 15:30:00,
2013-03-12 11:35:00,38.3,32.4,29.81,WSW,246,7.0,8.0,79,0.00,,,0.11,Wunderground v.1.15,2013-03-12 15:35:00,
2013-03-12 11:40:00,38.3,32.7,29.81,West,269,7.0,9.0,80,0.00,,,0.11,Wunderground v.1.15,2013-03-12 15:40:00,
2013-03-12 11:45:00,38.2,32.6,29.81,WSW,248,7.0,9.0,80,0.00,,,0.11,Wunderground v.1.15,2013-03-12 15:45:00,
2013-03-12 11:50:00,38.4,32.8,29.81,West,264,7.0,7.0,80,0.00,,,0.11,Wunderground v.1.15,2013-03-12 15:50:00,
2013-03-12 12:00:00,37.9,32.6,29.81,West,271,9.0,10.0,81,0.00,,,0.11,Wunderground v.1.15,2013-03-12 16:00:00,
2013-03-12 12:05:00,37.8,32.5,29.81,SW,228,10.0,10.0,81,0.00,,,0.11,Wunderground v.1.15,2013-03-12 16:05:00,
2013-03-12 12:10:00,37.8,32.8,29.81,WSW,258,9.0,10.0,82,0.00,,,0.11,Wunderground v.1.15,2013-03-12 16:10:00,
2013-03-12 12:15:00,37.8,33.1,29.80,West,277,8.0,13.0,83,0.00,,,0.11,Wunderground v.1.15,2013-03-12 16:15:00,
2013-03-12 12:20:00,37.6,33.2,29.81,West,267,9.0,12.0,84,0.00,,,0.11,Wunderground v.1.15,2013-03-12 16:20:00,
2013-03-12 12:25:00,37.2,33.1,29.81,West,277,9.0,12.0,85,0.00,,,0.11,Wunderground v.1.15,2013-03-12 16:25:00,
2013-03-12 12:30:00,37.1,33.0,29.81,West,273,9.0,9.0,85,0.00,,,0.11,Wunderground v.1.15,2013-03-12 16:30:00,
2013-03-12 12:35:00,37.1,32.7,29.81,West,268,8.0,9.0,84,0.00,,,0.11,Wunderground v.1.15,2013-03-12 16:35:00,
2013-03-12 12:45:00,36.9,32.8,29.82,West,267,7.0,8.0,85,0.00,,,0.11,Wunderground v.1.15,2013-03-12 16:45:00,
2013-03-12 12:50:00,36.7,32.6,29.82,West,267,7.0,11.0,85,0.00,,,0.11,Wunderground v.1.15,2013-03-12 16:50:00,
2013-03-12 12:55:00,36.6,32.5,29.82,West,261,8.0,11.0,85,0.00,,,0.11,Wunderground v.1.15,2013-03-12 16:55:00,
2013-03-12 13:00:00,36.4,32.6,29.82,West,267,8.0,9.0,86,0.00,,,0.11,Wunderground v.1.15,2013-03-12 17:00:00,
2013-03-12 13:10:00,35.8,32.0,29.82,West,269,10.0,11.0,86,0.00,,,0.11,Wunderground v.1.15,2013-03-12 17:10:00,
2013-03-12 13:15:00,35.9,32.1,29.82,SW,230,9.0,11.0,86,0.00,,,0.11,Wunderground v.1.15,2013-03-12 17:15:00,
2013-03-12 13:20:00,35.9,31.8,29.82,WSW,244,8.0,8.0,85,0.00,,,0.11,Wunderground v.1.15,2013-03-12 17:20:00,
2013-03-12 13:25:00,35.9,31.8,29.83,SW,226,7.0,8.0,85,0.00,,,0.11,Wunderground v.1.15,2013-03-12 17:25:00,
2013-03-12 13:30:00,36.0,31.9,29.83,West,275,8.0,8.0,85,0.00,,,0.11,Wunderground v.1.15,2013-03-12 17:30:00,
2013-03-12 13:40:00,35.9,31.8,29.82,WSW,247,7.0,7.0,85,0.00,,,0.11,Wunderground v.1.15,2013-03-12 17:40:00,
2013-03-12 13:45:00,35.7,31.6,29.82,West,261,8.0,12.0,85,0.00,,,0.11,Wunderground v.1.15,2013-03-12 17:45:00,
2013-03-12 13:50:00,35.7,31.6,29.82,West,263,9.0,9.0,85,0.00,,,0.11,Wunderground v.1.15,2013-03-12 17:50:00,
2013-03-12 13:55:00,35.7,31.6,29.82,WSW,246,12.0,12.0,85,0.00,,,0.11,Wunderground v.1.15,2013-03-12 17:55:00,
2013-03-12 14:00:00,35.9,31.8,29.82,West,264,6.0,8.0,85,0.00,,,0.11,Wunderground v.1.15,2013-03-12 18:00:00,
2013-03-12 14:05:00,35.9,31.8,29.81,West,273,7.0,10.0,85,0.00,,,0.11,Wunderground v.1.15,2013-03-12 18:05:00,
2013-03-12 14:15:00,36.0,31.9,29.81,West,275,8.0,11.0,85,0.00,,,0.11,Wunderground v.1.15,2013-03-12 18:15:00,
2013-03-12 14:20:00,36.0,31.6,29.81,WSW,249,9.0,9.0,84,0.00,,,0.11,Wunderground v.1.15,2013-03-12 18:20:00,
2013-03-12 14:25:00,36.0,31.9,29.81,WSW,240,8.0,9.0,85,0.00,,,0.11,Wunderground v.1.15,2013-03-12 18:25:00,
2013-03-12 14:30:00,36.0,31.9,29.81,West,262,7.0,7.0,85,0.00,,,0.11,Wunderground v.1.15,2013-03-12 18:30:00,
2013-03-12 14:35:00,35.9,31.5,29.81,West,271,7.0,15.0,84,0.00,,,0.11,Wunderground v.1.15,2013-03-12 18:35:00,
2013-03-12 14:40:00,35.6,31.2,29.81,WSW,258,9.0,11.0,84,0.00,,,0.11,Wunderground v.1.15,2013-03-12 18:40:00,
2013-03-12 14:50:00,35.3,31.2,29.81,West,266,13.0,14.0,85,0.00,,,0.11,Wunderground v.1.15,2013-03-12 18:50:00,
2013-03-12 14:55:00,35.4,31.3,29.81,West,271,12.0,14.0,85,0.00,,,0.11,Wunderground v.1.15,2013-03-12 18:55:00,
2013-03-12 15:00:00,35.3,31.2,29.80,WSW,253,11.0,11.0,85,0.00,,,0.11,Wunderground v.1.15,2013-03-12 19:00:00,
2013-03-12 15:05:00,35.3,30.9,29.81,WSW,258,10.0,11.0,84,0.00,,,0.11,Wunderground v.1.15,2013-03-12 19:05:00,
2013-03-12 15:10:00,35.4,31.0,29.81,West,267,10.0,16.0,84,0.00,,,0.11,Wunderground v.1.15,2013-03-12 19:10:00,
2013-03-12 15:15:00,35.2,30.9,29.81,WSW,257,12.0,16.0,84,0.00,,,0.11,Wunderground v.1.15,2013-03-12 19:15:00,
2013-03-12 15:25:00,35.2,30.9,29.81,West,259,11.0,12.0,84,0.00,,,0.11,Wunderground v.1.15,2013-03-12 19:25:00,
2013-03-12 15:30:00,35.2,30.9,29.82,West,267,9.0,9.0,84,0.00,,,0.11,Wunderground v.1.15,2013-03-12 19:30:00,
2013-03-12 15:35:00,35.0,30.9,29.81,West,267,10.0,15.0,85,0.00,,,0.11,Wunderground v.1.15,2013-03-12 19:35:00,
2013-03-12 15:40:00,34.9,30.8,29.82,West,262,11.0,11.0,85,0.00,,,0.11,Wunderground v.1.15,2013-03-12 19:40:00,
2013-03-12 15:45:00,34.8,30.8,29.82,WSW,239,10.0,11.0,85,0.00,,,0.11,Wunderground v.1.15,2013-03-12 19:45:00,
2013-03-12 15:50:00,34.7,30.7,29.82,West,265,10.0,10.0,85,0.00,,,0.11,Wunderground v.1.15,2013-03-12 19:50:00,
2013-03-12 16:00:00,34.6,30.6,29.82,West,281,9.0,9.0,85,0.00,,,0.11,Wunderground v.1.15,2013-03-12 20:00:00,
2013-03-12 16:05:00,34.5,30.5,29.82,West,267,10.0,12.0,85,0.00,,,0.11,Wunderground v.1.15,2013-03-12 20:05:00,
2013-03-12 16:10:00,34.4,30.1,29.82,West,271,12.0,12.0,84,0.00,,,0.11,Wunderground v.1.15,2013-03-12 20:10:00,
2013-03-12 16:15:00,34.4,30.1,29.83,WSW,245,11.0,13.0,84,0.00,,,0.11,Wunderground v.1.15,2013-03-12 20:15:00,
2013-03-12 16:20:00,34.4,30.1,29.83,West,273,10.0,10.0,84,0.00,,,0.11,Wunderground v.1.15,2013-03-12 20:20:00,
2013-03-12 16:25:00,34.5,30.2,29.83,West,261,10.0,13.0,84,0.00,,,0.11,Wunderground v.1.15,2013-03-12 20:25:00,
2013-03-12 16:35:00,34.8,29.6,29.82,West,265,10.0,10.0,81,0.00,,,0.11,Wunderground v.1.15,2013-03-12 20:35:00,
2013-03-12 16:40:00,35.0,30.1,29.83,SW,229,8.0,8.0,82,0.00,,,0.11,Wunderground v.1.15,2013-03-12 20:40:00,
2013-03-12 16:45:00,35.2,30.3,29.83,WSW,258,6.0,12.0,82,0.00,,,0.11,Wunderground v.1.15,2013-03-12 20:45:00,
2013-03-12 16:50:00,35.2,30.0,29.82,WSW,254,7.0,7.0,81,0.00,,,0.11,Wunderground v.1.15,2013-03-12 20:50:00,
2013-03-12 16:55:00,35.2,30.0,29.83,West,270,8.0,12.0,81,0.00,,,0.11,Wunderground v.1.15,2013-03-12 20:55:00,
2013-03-12 17:00:00,35.3,29.7,29.83,WSW,254,9.0,9.0,80,0.00,,,0.11,Wunderground v.1.15,2013-03-12 21:00:00,
2013-03-12 17:05:00,35.4,29.8,29.83,West,259,8.0,11.0,80,0.00,,,0.11,Wunderground v.1.15,2013-03-12 21:05:00,
2013-03-12 17:15:00,35.4,30.1,29.83,West,263,8.0,12.0,81,0.00,,,0.11,Wunderground v.1.15,2013-03-12 21:15:00,
2013-03-12 17:20:00,35.2,29.6,29.84,West,269,10.0,10.0,80,0.00,,,0.11,Wunderground v.1.15,2013-03-12 21:20:00,
2013-03-12 17:25:00,35.2,30.0,29.84,WNW,286,11.0,11.0,81,0.00,,,0.11,Wunderground v.1.15,2013-03-12 21:25:00,
2013-03-12 17:30:00,35.0,30.1,29.84,SW,232,10.0,12.0,82,0.00,,,0.11,Wunderground v.1.15,2013-03-12 21:30:00,
2013-03-12 17:35:00,34.9,30.3,29.84,West,263,10.0,13.0,83,0.00,,,0.11,Wunderground v.1.15,2013-03-12 21:35:00,
2013-03-12 17:40:00,34.7,30.4,29.84,West,270,10.0,19.0,84,0.00,,,0.11,Wunderground v.1.15,2013-03-12 21:40:00,
2013-03-12 17:50:00,34.3,30.3,29.85,WSW,257,11.0,11.0,85,0.00,,,0.11,Wunderground v.1.15,2013-03-12 21:50:00,
2013-03-12 17:55:00,34.1,30.4,29.85,WSW,251,11.0,11.0,86,0.00,,,0.11,Wunderground v.1.15,2013-03-12 21:55:00,
2013-03-12 18:00:00,33.8,30.3,29.85,WSW,255,10.0,11.0,87,0.00,,,0.11,Wunderground v.1.15,2013-03-12 22:00:00,
2013-03-12 18:05:00,33.8,30.3,29.85,WSW,251,9.0,13.0,87,0.00,,,0.11,Wunderground v.1.15,2013-03-12 22:05:00,
2013-03-12 18:10:00,33.8,30.3,29.85,WSW,253,8.0,8.0,87,0.00,,,0.11,Wunderground v.1.15,2013-03-12 22:10:00,
2013-03-12 18:15:00,33.9,29.9,29.85,West,263,9.0,11.0,85,0.00,,,0.11,Wunderground v.1.15,2013-03-12 22:15:00,
2013-03-12 18:25:00,34.0,29.7,29.86,WSW,258,12.0,14.0,84,0.00,,,0.11,Wunderground v.1.15,2013-03-12 22:25:00,
2013-03-12 18:35:00,34.1,29.8,29.86,West,262,13.0,20.0,84,0.00,,,0.11,Wunderground v.1.15,2013-03-12 22:35:00,
2013-03-12 18:40:00,34.0,29.4,29.86,West,264,11.0,11.0,83,0.00,,,0.11,Wunderground v.1.15,2013-03-12 22:40:00,
2013-03-12 18:45:00,34.1,29.2,29.86,West,279,11.0,12.0,82,0.00,,,0.11,Wunderground v.1.15,2013-03-12 22:45:00,
2013-03-12 18:50:00,34.1,29.2,29.86,West,263,10.0,10.0,82,0.00,,,0.11,Wunderground v.1.15,2013-03-12 22:50:00,
2013-03-12 18:55:00,34.1,29.2,29.86,West,279,9.0,10.0,82,0.00,,,0.11,Wunderground v.1.15,2013-03-12 22:55:00,
2013-03-12 19:00:00,34.1,29.2,29.86,West,263,9.0,9.0,82,0.00,,,0.11,Wunderground v.1.15,2013-03-12 23:00:00,
2013-03-12 19:05:00,34.0,29.4,29.86,West,277,8.0,9.0,83,0.00,,,0.11,Wunderground v.1.15,2013-03-12 23:05:00,
2013-03-12 19:15:00,33.9,29.3,29.86,WSW,244,6.0,12.0,83,0.00,,,0.11,Wunderground v.1.15,2013-03-12 23:15:00,
2013-03-12 19:20:00,33.9,29.3,29.87,West,271,7.0,7.0,83,0.00,,,0.11,Wunderground v.1.15,2013-03-12 23:20:00,
2013-03-12 19:25:00,33.9,29.3,29.87,West,264,7.0,8.0,83,0.00,,,0.11,Wunderground v.1.15,2013-03-12 23:25:00,
2013-03-12 19:35:00,33.9,29.3,29.87,West,272,7.0,12.0,83,0.00,,,0.11,Wunderground v.1.15,2013-03-12 23:35:00,
2013-03-12 19:40:00,33.8,29.2,29.88,West,274,8.0,8.0,83,0.00,,,0.11,Wunderground v.1.15,2013-03-12 23:40:00,
2013-03-12 19:45:00,33.8,29.2,29.88,WSW,254,7.0,11.0,83,0.00,,,0.11,Wunderground v.1.15,2013-03-12 23:45:00,
2013-03-12 19:50:00,33.8,29.2,29.88,West,271,9.0,18.0,83,0.00,,,0.11,Wunderground v.1.15,2013-03-12 23:50:00,
2013-03-12 19:55:00,33.8,29.5,29.88,WSW,244,10.0,18.0,84,0.00,,,0.11,Wunderground v.1.15,2013-03-12 23:55:00,
2013-03-12 20:00:00,33.8,29.2,29.88,WSW,250,9.0,9.0,83,0.00,,,0.11,Wunderground v.1.15,2013-03-13 00:00:00,
2013-03-12 20:10:00,33.9,29.3,29.89,WSW,256,7.0,8.0,83,0.00,,,0.11,Wunderground v.1.15,2013-03-13 00:10:00,
2013-03-12 20:20:00,33.9,29.0,29.89,WSW,257,6.0,8.0,82,0.00,,,0.11,Wunderground v.1.15,2013-03-13 00:20:00,
2013-03-12 20:25:00,33.9,29.0,29.88,West,277,6.0,9.0,82,0.00,,,0.11,Wunderground v.1.15,2013-03-13 00:25:00,
2013-03-12 20:30:00,33.9,28.7,29.88,West,259,9.0,9.0,81,0.00,,,0.11,Wunderground v.1.15,2013-03-13 00:30:00,
2013-03-12 20:40:00,33.9,29.0,29.89,WSW,252,8.0,8.0,82,0.00,,,0.11,Wunderground v.1.15,2013-03-13 00:40:00,
2013-03-12 20:45:00,33.9,29.0,29.89,West,273,7.0,8.0,82,0.00,,,0.11,Wunderground v.1.15,2013-03-13 00:45:00,
2013-03-12 20:50:00,34.0,29.1,29.89,WSW,249,6.0,15.0,82,0.00,,,0.11,Wunderground v.1.15,2013-03-13 00:50:00,
2013-03-12 20:55:00,33.9,28.7,29.89,West,271,8.0,15.0,81,0.00,,,0.11,Wunderground v.1.15,2013-03-13 00:55:00,
2013-03-12 21:00:00,33.8,28.3,29.89,West,266,9.0,18.0,80,0.00,,,0.11,Wunderground v.1.15,2013-03-13 01:00:00,
2013-03-12 21:05:00,33.7,28.2,29.88,West,271,10.0,18.0,80,0.00,,,0.11,Wunderground v.1.15,2013-03-13 01:05:00,
2013-03-12 21:10:00,33.7,28.5,29.89,WSW,250,9.0,9.0,81,0.00,,,0.11,Wunderground v.1.15,2013-03-13 01:10:00,
2013-03-12 21:20:00,33.6,28.4,29.89,WSW,258,7.0,7.0,81,0.00,,,0.11,Wunderground v.1.15,2013-03-13 01:20:00,
2013-03-12 21:25:00,33.5,28.3,29.90,SW,223,8.0,8.0,81,0.00,,,0.11,Wunderground v.1.15,2013-03-13 01:25:00,
2013-03-12 21:30:00,33.5,28.3,29.89,West,274,9.0,9.0,81,0.00,,,0.11,Wunderground v.1.15,2013-03-13 01:30:00,
2013-03-12 21:35:00,33.5,28.6,29.90,WSW,248,8.0,9.0,82,0.00,,,0.11,Wunderground v.1.15,2013-03-13 01:35:00,
2013-03-12 21:40:00,33.5,28.6,29.90,West,266,7.0,7.0,82,0.00,,,0.11,Wunderground v.1.15,2013-03-13 01:40:00,
2013-03-12 21:45:00,33.4,27.9,29.89,West,275,8.0,11.0,80,0.00,,,0.11,Wunderground v.1.15,2013-03-13 01:45:00,
2013-03-12 21:55:00,33.3,28.1,29.90,West,263,8.0,9.0,81,0.00,,,0.11,Wunderground v.1.15,2013-03-13 01:55:00,
2013-03-12 22:00:00,33.1,27.9,29.90,West,279,8.0,8.0,81,0.00,,,0.11,Wunderground v.1.15,2013-03-13 02:00:00,
2013-03-12 22:05:00,33.0,27.8,29.90,WNW,283,8.0,8.0,81,0.00,,,0.11,Wunderground v.1.15,2013-03-13 02:05:00,
2013-03-12 22:10:00,33.0,27.8,29.90,WSW,254,8.0,13.0,81,0.00,,,0.11,Wunderground v.1.15,2013-03-13 02:10:00,
2013-03-12 22:15:00,33.0,27.8,29.91,WSW,255,9.0,13.0,81,0.00,,,0.11,Wunderground v.1.15,2013-03-13 02:15:00,
2013-03-12 22:20:00,33.0,28.1,29.91,West,265,10.0,10.0,82,0.00,,,0.11,Wunderground v.1.15,2013-03-13 02:20:00,
2013-03-12 22:30:00,33.0,27.8,29.91,West,265,7.0,9.0,81,0.00,,,0.11,Wunderground v.1.15,2013-03-13 02:30:00,
2013-03-12 22:35:00,32.9,27.4,29.91,WSW,257,9.0,9.0,80,0.00,,,0.11,Wunderground v.1.15,2013-03-13 02:35:00,
2013-03-12 22:40:00,32.9,27.7,29.91,SW,227,9.0,9.0,81,0.00,,,0.11,Wunderground v.1.15,2013-03-13 02:40:00,
2013-03-12 22:45:00,32.8,27.3,29.90,West,265,8.0,9.0,80,0.00,,,0.11,Wunderground v.1.15,2013-03-13 02:45:00,
2013-03-12 22:50:00,32.8,27.6,29.90,WSW,247,8.0,9.0,81,0.00,,,0.11,Wunderground v.1.15,2013-03-13 02:50:00,
2013-03-12 22:55:00,32.6,27.4,29.90,West,266,9.0,12.0,81,0.00,,,0.11,Wunderground v.1.15,2013-03-13 02:55:00,
2013-03-12 23:05:00,32.6,28.0,29.91,West,271,8.0,9.0,83,0.00,,,0.11,Wunderground v.1.15,2013-03-13 03:05:00,
2013-03-12 23:10:00,32.6,28.0,29.91,SW,232,5.0,5.0,83,0.00,,,0.11,Wunderground v.1.15,2013-03-13 03:10:00,
2013-03-12 23:15:00,32.6,28.0,29.91,West,259,4.0,8.0,83,0.00,,,0.11,Wunderground v.1.15,2013-03-13 03:15:00,
2013-03-12 23:20:00,32.6,28.0,29.91,SW,228,5.0,8.0,83,0.00,,,0.11,Wunderground v.1.15,2013-03-13 03:20:00,
2013-03-12 23:25:00,32.5,27.9,29.91,WSW,251,7.0,8.0,83,0.00,,,0.11,Wunderground v.1.15,2013-03-13 03:25:00,
2013-03-12 23:30:00,32.5,27.6,29.91,SW,236,6.0,8.0,82,0.00,,,0.11,Wunderground v.1.15,2013-03-13 03:30:00,
2013-03-12 23:40:00,32.5,27.6,29.91,SW,224,7.0,7.0,82,0.00,,,0.11,Wunderground v.1.15,2013-03-13 03:40:00,
2013-03-12 23:45:00,32.5,27.6,29.92,WSW,242,7.0,8.0,82,0.00,,,0.11,Wunderground v.1.15,2013-03-13 03:45:00,
2013-03-12 23:50:00,32.4,27.2,29.92,SW,234,6.0,10.0,81,0.00,,,0.11,Wunderground v.1.15,2013-03-13 03:50:00,
2013-03-12 23:55:00,32.4,27.5,29.92,WSW,248,6.0,10.0,82,0.00,,,0.11,Wunderground v.1.15,2013-03-13 03:55:00,